sensor_id;sensor_type;location;lat;lon;timestamp;P1;durP1;ratioP1;P2;durP2;ratioP2
19163;SDS011;9714;51.208;4.242;2023-04-24T00:01:29;31.03;;;17.97;;
19163;SDS011;9714;51.208;4.242;2023-04-24T00:03:58;26.40;;;16.77;;
19163;SDS011;9714;51.208;4.242;2023-04-24T00:06:26;28.07;;;15.53;;
19163;SDS011;9714;51.208;4.242;2023-04-24T00:08:59;31.63;;;15.90;;
19163;SDS011;9714;51.208;4.242;2023-04-24T00:11:27;28.60;;;14.70;;
19163;SDS011;9714;51.208;4.242;2023-04-24T00:13:55;26.87;;;14.73;;
19163;SDS011;9714;51.208;4.242;2023-04-24T00:16:23;25.77;;;15.47;;
19163;SDS011;9714;51.208;4.242;2023-04-24T00:18:50;27.53;;;16.20;;
19163;SDS011;9714;51.208;4.242;2023-04-24T00:21:19;26.43;;;15.47;;
19163;SDS011;9714;51.208;4.242;2023-04-24T00:23:49;29.97;;;15.23;;
19163;SDS011;9714;51.208;4.242;2023-04-24T00:26:16;26.37;;;13.57;;
19163;SDS011;9714;51.208;4.242;2023-04-24T00:28:43;30.90;;;13.67;;
19163;SDS011;9714;51.208;4.242;2023-04-24T00:31:10;24.13;;;14.53;;
19163;SDS011;9714;51.208;4.242;2023-04-24T00:33:37;27.73;;;13.77;;
19163;SDS011;9714;51.208;4.242;2023-04-24T00:36:05;22.60;;;11.83;;
19163;SDS011;9714;51.208;4.242;2023-04-24T00:38:32;23.10;;;12.97;;
19163;SDS011;9714;51.208;4.242;2023-04-24T00:41:00;23.27;;;12.60;;
19163;SDS011;9714;51.208;4.242;2023-04-24T00:43:34;24.03;;;12.50;;
19163;SDS011;9714;51.208;4.242;2023-04-24T00:46:01;21.73;;;12.30;;
19163;SDS011;9714;51.208;4.242;2023-04-24T00:48:28;21.97;;;13.83;;
19163;SDS011;9714;51.208;4.242;2023-04-24T00:51:00;23.87;;;14.10;;
19163;SDS011;9714;51.208;4.242;2023-04-24T00:53:27;25.80;;;14.80;;
19163;SDS011;9714;51.208;4.242;2023-04-24T00:55:56;28.37;;;14.93;;
19163;SDS011;9714;51.208;4.242;2023-04-24T00:58:25;32.13;;;16.77;;
19163;SDS011;9714;51.208;4.242;2023-04-24T01:00:54;30.23;;;16.93;;
19163;SDS011;9714;51.208;4.242;2023-04-24T01:03:23;30.63;;;16.63;;
19163;SDS011;9714;51.208;4.242;2023-04-24T01:05:52;27.20;;;17.83;;
19163;SDS011;9714;51.208;4.242;2023-04-24T01:08:21;36.97;;;19.63;;
19163;SDS011;9714;51.208;4.242;2023-04-24T01:10:50;33.63;;;19.00;;
19163;SDS011;9714;51.208;4.242;2023-04-24T01:13:19;29.07;;;18.27;;
19163;SDS011;9714;51.208;4.242;2023-04-24T01:15:48;30.07;;;18.10;;
19163;SDS011;9714;51.208;4.242;2023-04-24T01:18:15;28.30;;;17.63;;
19163;SDS011;9714;51.208;4.242;2023-04-24T01:20:43;32.33;;;18.43;;
19163;SDS011;9714;51.208;4.242;2023-04-24T01:23:14;27.00;;;16.50;;
19163;SDS011;9714;51.208;4.242;2023-04-24T01:25:41;27.30;;;15.77;;
19163;SDS011;9714;51.208;4.242;2023-04-24T01:28:09;24.77;;;15.27;;
19163;SDS011;9714;51.208;4.242;2023-04-24T01:30:40;21.83;;;13.43;;
19163;SDS011;9714;51.208;4.242;2023-04-24T01:33:07;27.20;;;13.03;;
19163;SDS011;9714;51.208;4.242;2023-04-24T01:35:35;25.33;;;12.53;;
19163;SDS011;9714;51.208;4.242;2023-04-24T01:38:04;25.90;;;12.87;;
19163;SDS011;9714;51.208;4.242;2023-04-24T01:40:33;22.63;;;12.30;;
19163;SDS011;9714;51.208;4.242;2023-04-24T01:43:06;23.33;;;12.03;;
19163;SDS011;9714;51.208;4.242;2023-04-24T01:45:36;21.67;;;12.60;;
19163;SDS011;9714;51.208;4.242;2023-04-24T01:48:03;21.30;;;11.67;;
19163;SDS011;9714;51.208;4.242;2023-04-24T01:50:33;18.70;;;10.50;;
19163;SDS011;9714;51.208;4.242;2023-04-24T01:53:01;20.27;;;11.27;;
19163;SDS011;9714;51.208;4.242;2023-04-24T01:55:28;21.20;;;11.30;;
19163;SDS011;9714;51.208;4.242;2023-04-24T01:57:58;18.73;;;10.87;;
19163;SDS011;9714;51.208;4.242;2023-04-24T02:00:27;18.17;;;10.93;;
19163;SDS011;9714;51.208;4.242;2023-04-24T02:02:54;20.93;;;10.77;;
19163;SDS011;9714;51.208;4.242;2023-04-24T02:05:21;23.50;;;11.77;;
19163;SDS011;9714;51.208;4.242;2023-04-24T02:07:52;17.43;;;11.27;;
19163;SDS011;9714;51.208;4.242;2023-04-24T02:10:19;23.20;;;13.07;;
19163;SDS011;9714;51.208;4.242;2023-04-24T02:12:50;18.70;;;12.80;;
19163;SDS011;9714;51.208;4.242;2023-04-24T02:15:18;21.03;;;13.23;;
19163;SDS011;9714;51.208;4.242;2023-04-24T02:17:45;21.00;;;12.20;;
19163;SDS011;9714;51.208;4.242;2023-04-24T02:20:14;21.77;;;12.43;;
19163;SDS011;9714;51.208;4.242;2023-04-24T02:22:42;22.13;;;13.50;;
19163;SDS011;9714;51.208;4.242;2023-04-24T02:25:10;24.93;;;13.77;;
19163;SDS011;9714;51.208;4.242;2023-04-24T02:27:37;23.47;;;14.33;;
19163;SDS011;9714;51.208;4.242;2023-04-24T02:30:07;23.37;;;14.13;;
19163;SDS011;9714;51.208;4.242;2023-04-24T02:32:36;22.27;;;15.30;;
19163;SDS011;9714;51.208;4.242;2023-04-24T02:35:04;22.23;;;15.03;;
19163;SDS011;9714;51.208;4.242;2023-04-24T02:37:34;22.77;;;16.00;;
19163;SDS011;9714;51.208;4.242;2023-04-24T02:40:01;22.80;;;15.47;;
19163;SDS011;9714;51.208;4.242;2023-04-24T02:42:29;24.50;;;16.33;;
19163;SDS011;9714;51.208;4.242;2023-04-24T02:44:57;23.97;;;16.83;;
19163;SDS011;9714;51.208;4.242;2023-04-24T02:47:24;25.20;;;16.37;;
19163;SDS011;9714;51.208;4.242;2023-04-24T02:49:55;23.57;;;16.53;;
19163;SDS011;9714;51.208;4.242;2023-04-24T02:52:23;24.93;;;16.90;;
19163;SDS011;9714;51.208;4.242;2023-04-24T02:54:53;22.80;;;16.67;;
19163;SDS011;9714;51.208;4.242;2023-04-24T02:57:21;27.30;;;17.67;;
19163;SDS011;9714;51.208;4.242;2023-04-24T02:59:49;27.17;;;17.13;;
19163;SDS011;9714;51.208;4.242;2023-04-24T03:02:23;27.07;;;18.23;;
19163;SDS011;9714;51.208;4.242;2023-04-24T03:04:50;25.47;;;17.33;;
19163;SDS011;9714;51.208;4.242;2023-04-24T03:07:18;30.40;;;20.90;;
19163;SDS011;9714;51.208;4.242;2023-04-24T03:09:46;26.57;;;19.03;;
19163;SDS011;9714;51.208;4.242;2023-04-24T03:12:19;24.43;;;17.07;;
19163;SDS011;9714;51.208;4.242;2023-04-24T03:14:48;25.40;;;16.73;;
19163;SDS011;9714;51.208;4.242;2023-04-24T03:17:17;27.33;;;18.43;;
19163;SDS011;9714;51.208;4.242;2023-04-24T03:19:45;26.67;;;16.67;;
19163;SDS011;9714;51.208;4.242;2023-04-24T03:22:12;21.67;;;11.17;;
19163;SDS011;9714;51.208;4.242;2023-04-24T03:24:40;14.97;;;7.47;;
19163;SDS011;9714;51.208;4.242;2023-04-24T03:27:08;17.50;;;6.30;;
19163;SDS011;9714;51.208;4.242;2023-04-24T03:29:37;17.10;;;6.17;;
19163;SDS011;9714;51.208;4.242;2023-04-24T03:32:04;18.37;;;5.83;;
19163;SDS011;9714;51.208;4.242;2023-04-24T03:34:32;12.77;;;5.20;;
19163;SDS011;9714;51.208;4.242;2023-04-24T03:37:01;15.00;;;4.40;;
19163;SDS011;9714;51.208;4.242;2023-04-24T03:39:29;14.07;;;5.33;;
19163;SDS011;9714;51.208;4.242;2023-04-24T03:41:59;12.83;;;4.90;;
19163;SDS011;9714;51.208;4.242;2023-04-24T03:44:26;15.03;;;4.50;;
19163;SDS011;9714;51.208;4.242;2023-04-24T03:46:53;14.30;;;4.43;;
19163;SDS011;9714;51.208;4.242;2023-04-24T03:49:21;14.10;;;5.03;;
19163;SDS011;9714;51.208;4.242;2023-04-24T03:51:49;12.67;;;4.80;;
19163;SDS011;9714;51.208;4.242;2023-04-24T03:54:17;13.67;;;5.17;;
19163;SDS011;9714;51.208;4.242;2023-04-24T03:56:45;12.97;;;5.43;;
19163;SDS011;9714;51.208;4.242;2023-04-24T03:59:14;14.27;;;5.20;;
19163;SDS011;9714;51.208;4.242;2023-04-24T04:01:41;14.70;;;6.00;;
19163;SDS011;9714;51.208;4.242;2023-04-24T04:04:14;18.13;;;6.20;;
19163;SDS011;9714;51.208;4.242;2023-04-24T04:06:41;15.50;;;5.90;;
19163;SDS011;9714;51.208;4.242;2023-04-24T04:09:09;17.53;;;6.60;;
19163;SDS011;9714;51.208;4.242;2023-04-24T04:11:37;17.87;;;7.23;;
19163;SDS011;9714;51.208;4.242;2023-04-24T04:14:04;17.20;;;7.33;;
19163;SDS011;9714;51.208;4.242;2023-04-24T04:16:33;15.87;;;7.43;;
19163;SDS011;9714;51.208;4.242;2023-04-24T04:19:01;15.80;;;7.10;;
19163;SDS011;9714;51.208;4.242;2023-04-24T04:21:29;17.97;;;7.87;;
19163;SDS011;9714;51.208;4.242;2023-04-24T04:23:58;21.23;;;9.10;;
19163;SDS011;9714;51.208;4.242;2023-04-24T04:26:25;21.00;;;9.53;;
19163;SDS011;9714;51.208;4.242;2023-04-24T04:28:53;26.10;;;11.10;;
19163;SDS011;9714;51.208;4.242;2023-04-24T04:31:21;28.83;;;12.23;;
19163;SDS011;9714;51.208;4.242;2023-04-24T04:33:52;28.43;;;13.13;;
19163;SDS011;9714;51.208;4.242;2023-04-24T04:36:20;28.43;;;14.27;;
19163;SDS011;9714;51.208;4.242;2023-04-24T04:38:49;28.40;;;13.93;;
19163;SDS011;9714;51.208;4.242;2023-04-24T04:41:17;27.10;;;13.33;;
19163;SDS011;9714;51.208;4.242;2023-04-24T04:43:45;24.87;;;13.43;;
19163;SDS011;9714;51.208;4.242;2023-04-24T04:46:12;26.83;;;13.63;;
19163;SDS011;9714;51.208;4.242;2023-04-24T04:48:40;26.60;;;12.93;;
19163;SDS011;9714;51.208;4.242;2023-04-24T04:51:09;30.97;;;13.17;;
19163;SDS011;9714;51.208;4.242;2023-04-24T04:53:36;31.43;;;13.13;;
19163;SDS011;9714;51.208;4.242;2023-04-24T04:56:03;25.50;;;12.30;;
19163;SDS011;9714;51.208;4.242;2023-04-24T04:58:31;27.33;;;12.07;;
19163;SDS011;9714;51.208;4.242;2023-04-24T05:00:59;28.30;;;11.30;;
19163;SDS011;9714;51.208;4.242;2023-04-24T05:03:26;23.23;;;11.03;;
19163;SDS011;9714;51.208;4.242;2023-04-24T05:05:53;22.50;;;11.13;;
19163;SDS011;9714;51.208;4.242;2023-04-24T05:08:21;20.23;;;10.00;;
19163;SDS011;9714;51.208;4.242;2023-04-24T05:10:50;20.27;;;8.13;;
19163;SDS011;9714;51.208;4.242;2023-04-24T05:13:20;28.07;;;10.13;;
19163;SDS011;9714;51.208;4.242;2023-04-24T05:15:48;20.53;;;8.53;;
19163;SDS011;9714;51.208;4.242;2023-04-24T05:18:15;24.47;;;9.20;;
19163;SDS011;9714;51.208;4.242;2023-04-24T05:20:48;19.67;;;9.57;;
19163;SDS011;9714;51.208;4.242;2023-04-24T05:23:17;26.30;;;9.43;;
19163;SDS011;9714;51.208;4.242;2023-04-24T05:25:46;25.10;;;9.07;;
19163;SDS011;9714;51.208;4.242;2023-04-24T05:28:14;22.83;;;10.00;;
19163;SDS011;9714;51.208;4.242;2023-04-24T05:30:41;20.33;;;9.50;;
19163;SDS011;9714;51.208;4.242;2023-04-24T05:33:08;28.30;;;10.37;;
19163;SDS011;9714;51.208;4.242;2023-04-24T05:35:35;20.97;;;11.00;;
19163;SDS011;9714;51.208;4.242;2023-04-24T05:38:04;22.93;;;10.50;;
19163;SDS011;9714;51.208;4.242;2023-04-24T05:40:33;30.03;;;12.30;;
19163;SDS011;9714;51.208;4.242;2023-04-24T05:43:01;25.27;;;11.83;;
19163;SDS011;9714;51.208;4.242;2023-04-24T05:45:28;24.20;;;11.37;;
19163;SDS011;9714;51.208;4.242;2023-04-24T05:47:56;20.90;;;11.30;;
19163;SDS011;9714;51.208;4.242;2023-04-24T05:50:23;23.90;;;11.43;;
19163;SDS011;9714;51.208;4.242;2023-04-24T05:52:52;31.07;;;13.30;;
19163;SDS011;9714;51.208;4.242;2023-04-24T05:55:19;29.90;;;14.20;;
19163;SDS011;9714;51.208;4.242;2023-04-24T05:57:46;24.73;;;14.00;;
19163;SDS011;9714;51.208;4.242;2023-04-24T06:00:16;23.77;;;12.23;;
19163;SDS011;9714;51.208;4.242;2023-04-24T06:02:45;32.17;;;14.77;;
19163;SDS011;9714;51.208;4.242;2023-04-24T06:05:12;27.73;;;12.80;;
19163;SDS011;9714;51.208;4.242;2023-04-24T06:07:40;31.60;;;14.70;;
19163;SDS011;9714;51.208;4.242;2023-04-24T06:10:07;30.10;;;14.03;;
19163;SDS011;9714;51.208;4.242;2023-04-24T06:12:36;27.27;;;13.83;;
19163;SDS011;9714;51.208;4.242;2023-04-24T06:15:03;34.10;;;13.60;;
19163;SDS011;9714;51.208;4.242;2023-04-24T06:17:33;26.20;;;12.97;;
19163;SDS011;9714;51.208;4.242;2023-04-24T06:20:00;32.90;;;13.87;;
19163;SDS011;9714;51.208;4.242;2023-04-24T06:22:30;27.37;;;12.33;;
19163;SDS011;9714;51.208;4.242;2023-04-24T06:24:59;34.87;;;14.53;;
19163;SDS011;9714;51.208;4.242;2023-04-24T06:27:27;28.63;;;12.70;;
19163;SDS011;9714;51.208;4.242;2023-04-24T06:29:55;33.03;;;14.60;;
19163;SDS011;9714;51.208;4.242;2023-04-24T06:32:22;32.43;;;13.47;;
19163;SDS011;9714;51.208;4.242;2023-04-24T06:34:52;30.43;;;13.00;;
19163;SDS011;9714;51.208;4.242;2023-04-24T06:37:20;21.67;;;10.33;;
19163;SDS011;9714;51.208;4.242;2023-04-24T06:39:47;22.80;;;9.57;;
19163;SDS011;9714;51.208;4.242;2023-04-24T06:42:15;28.03;;;9.07;;
19163;SDS011;9714;51.208;4.242;2023-04-24T06:44:42;25.30;;;9.23;;
19163;SDS011;9714;51.208;4.242;2023-04-24T06:47:09;21.40;;;7.30;;
19163;SDS011;9714;51.208;4.242;2023-04-24T06:49:38;18.43;;;7.73;;
19163;SDS011;9714;51.208;4.242;2023-04-24T06:52:09;21.80;;;8.07;;
19163;SDS011;9714;51.208;4.242;2023-04-24T06:54:36;26.00;;;7.60;;
19163;SDS011;9714;51.208;4.242;2023-04-24T06:57:04;25.17;;;6.30;;
19163;SDS011;9714;51.208;4.242;2023-04-24T06:59:31;23.37;;;7.23;;
19163;SDS011;9714;51.208;4.242;2023-04-24T07:01:58;18.17;;;6.27;;
19163;SDS011;9714;51.208;4.242;2023-04-24T07:04:25;19.67;;;6.10;;
19163;SDS011;9714;51.208;4.242;2023-04-24T07:06:55;24.60;;;6.80;;
19163;SDS011;9714;51.208;4.242;2023-04-24T07:09:25;15.87;;;5.30;;
19163;SDS011;9714;51.208;4.242;2023-04-24T07:11:53;19.17;;;5.57;;
19163;SDS011;9714;51.208;4.242;2023-04-24T07:14:21;18.23;;;4.83;;
19163;SDS011;9714;51.208;4.242;2023-04-24T07:16:49;20.70;;;4.80;;
19163;SDS011;9714;51.208;4.242;2023-04-24T07:19:16;18.87;;;5.33;;
19163;SDS011;9714;51.208;4.242;2023-04-24T07:21:43;16.27;;;5.17;;
19163;SDS011;9714;51.208;4.242;2023-04-24T07:24:12;12.67;;;4.53;;
19163;SDS011;9714;51.208;4.242;2023-04-24T07:26:40;19.77;;;5.50;;
19163;SDS011;9714;51.208;4.242;2023-04-24T07:29:08;16.77;;;4.20;;
19163;SDS011;9714;51.208;4.242;2023-04-24T07:31:35;18.90;;;4.57;;
19163;SDS011;9714;51.208;4.242;2023-04-24T07:34:05;17.07;;;4.97;;
19163;SDS011;9714;51.208;4.242;2023-04-24T07:36:32;18.77;;;4.63;;
19163;SDS011;9714;51.208;4.242;2023-04-24T07:38:59;25.43;;;5.43;;
19163;SDS011;9714;51.208;4.242;2023-04-24T07:41:26;22.90;;;4.63;;
19163;SDS011;9714;51.208;4.242;2023-04-24T07:46:25;21.97;;;4.53;;
19163;SDS011;9714;51.208;4.242;2023-04-24T07:48:54;25.17;;;4.90;;
19163;SDS011;9714;51.208;4.242;2023-04-24T07:51:22;20.73;;;4.40;;
19163;SDS011;9714;51.208;4.242;2023-04-24T07:53:52;25.77;;;5.03;;
19163;SDS011;9714;51.208;4.242;2023-04-24T07:56:19;17.43;;;4.17;;
19163;SDS011;9714;51.208;4.242;2023-04-24T07:58:46;17.43;;;4.20;;
19163;SDS011;9714;51.208;4.242;2023-04-24T08:01:15;18.77;;;5.00;;
19163;SDS011;9714;51.208;4.242;2023-04-24T08:03:42;20.43;;;4.40;;
19163;SDS011;9714;51.208;4.242;2023-04-24T08:06:09;22.63;;;4.43;;
19163;SDS011;9714;51.208;4.242;2023-04-24T08:08:39;17.47;;;5.30;;
19163;SDS011;9714;51.208;4.242;2023-04-24T08:11:06;24.43;;;5.70;;
19163;SDS011;9714;51.208;4.242;2023-04-24T08:13:33;16.83;;;4.93;;
19163;SDS011;9714;51.208;4.242;2023-04-24T08:16:00;30.73;;;6.00;;
19163;SDS011;9714;51.208;4.242;2023-04-24T08:18:29;20.33;;;5.10;;
19163;SDS011;9714;51.208;4.242;2023-04-24T08:20:56;22.47;;;4.87;;
19163;SDS011;9714;51.208;4.242;2023-04-24T08:23:27;22.87;;;5.10;;
19163;SDS011;9714;51.208;4.242;2023-04-24T08:25:55;35.67;;;6.33;;
19163;SDS011;9714;51.208;4.242;2023-04-24T08:28:24;18.73;;;4.33;;
19163;SDS011;9714;51.208;4.242;2023-04-24T08:30:52;21.13;;;4.67;;
19163;SDS011;9714;51.208;4.242;2023-04-24T08:33:25;23.70;;;4.73;;
19163;SDS011;9714;51.208;4.242;2023-04-24T08:35:59;24.33;;;4.77;;
19163;SDS011;9714;51.208;4.242;2023-04-24T08:38:26;33.53;;;6.17;;
19163;SDS011;9714;51.208;4.242;2023-04-24T08:40:53;45.57;;;7.23;;
19163;SDS011;9714;51.208;4.242;2023-04-24T08:43:22;27.40;;;4.67;;
19163;SDS011;9714;51.208;4.242;2023-04-24T08:45:51;26.70;;;5.23;;
19163;SDS011;9714;51.208;4.242;2023-04-24T08:48:18;19.63;;;4.07;;
19163;SDS011;9714;51.208;4.242;2023-04-24T08:50:47;25.63;;;3.90;;
19163;SDS011;9714;51.208;4.242;2023-04-24T08:53:18;30.67;;;5.10;;
19163;SDS011;9714;51.208;4.242;2023-04-24T08:55:46;30.90;;;4.43;;
19163;SDS011;9714;51.208;4.242;2023-04-24T08:58:15;16.17;;;4.53;;
19163;SDS011;9714;51.208;4.242;2023-04-24T09:00:44;18.57;;;4.80;;
19163;SDS011;9714;51.208;4.242;2023-04-24T09:03:13;17.57;;;4.07;;
19163;SDS011;9714;51.208;4.242;2023-04-24T09:05:41;16.97;;;3.83;;
19163;SDS011;9714;51.208;4.242;2023-04-24T09:08:11;23.37;;;4.37;;
19163;SDS011;9714;51.208;4.242;2023-04-24T09:10:41;23.07;;;4.90;;
19163;SDS011;9714;51.208;4.242;2023-04-24T09:13:08;23.03;;;4.57;;
19163;SDS011;9714;51.208;4.242;2023-04-24T09:15:36;25.60;;;5.23;;
19163;SDS011;9714;51.208;4.242;2023-04-24T09:18:05;25.33;;;5.03;;
19163;SDS011;9714;51.208;4.242;2023-04-24T09:20:33;19.70;;;4.33;;
19163;SDS011;9714;51.208;4.242;2023-04-24T09:23:01;20.73;;;4.93;;
19163;SDS011;9714;51.208;4.242;2023-04-24T09:25:30;17.37;;;4.27;;
19163;SDS011;9714;51.208;4.242;2023-04-24T09:28:01;20.77;;;4.60;;
19163;SDS011;9714;51.208;4.242;2023-04-24T09:30:29;26.20;;;5.00;;
19163;SDS011;9714;51.208;4.242;2023-04-24T09:33:13;22.83;;;4.40;;
19163;SDS011;9714;51.208;4.242;2023-04-24T09:35:41;19.57;;;4.73;;
19163;SDS011;9714;51.208;4.242;2023-04-24T09:38:09;20.17;;;4.27;;
19163;SDS011;9714;51.208;4.242;2023-04-24T09:40:36;13.20;;;3.57;;
19163;SDS011;9714;51.208;4.242;2023-04-24T09:43:05;25.00;;;4.23;;
19163;SDS011;9714;51.208;4.242;2023-04-24T09:45:37;15.77;;;3.50;;
19163;SDS011;9714;51.208;4.242;2023-04-24T09:48:05;13.23;;;2.73;;
19163;SDS011;9714;51.208;4.242;2023-04-24T09:50:36;15.43;;;2.93;;
19163;SDS011;9714;51.208;4.242;2023-04-24T09:53:03;11.07;;;2.73;;
19163;SDS011;9714;51.208;4.242;2023-04-24T09:55:33;12.30;;;2.80;;
19163;SDS011;9714;51.208;4.242;2023-04-24T09:58:08;14.40;;;2.53;;
19163;SDS011;9714;51.208;4.242;2023-04-24T10:00:35;9.40;;;2.20;;
19163;SDS011;9714;51.208;4.242;2023-04-24T10:03:03;12.17;;;2.30;;
19163;SDS011;9714;51.208;4.242;2023-04-24T10:05:32;6.33;;;1.83;;
19163;SDS011;9714;51.208;4.242;2023-04-24T10:08:02;6.30;;;1.90;;
19163;SDS011;9714;51.208;4.242;2023-04-24T10:10:30;7.83;;;2.20;;
19163;SDS011;9714;51.208;4.242;2023-04-24T10:12:58;11.77;;;2.57;;
19163;SDS011;9714;51.208;4.242;2023-04-24T10:15:27;9.23;;;2.13;;
19163;SDS011;9714;51.208;4.242;2023-04-24T10:17:57;10.70;;;2.43;;
19163;SDS011;9714;51.208;4.242;2023-04-24T10:20:26;10.43;;;2.37;;
19163;SDS011;9714;51.208;4.242;2023-04-24T10:22:55;12.07;;;2.73;;
19163;SDS011;9714;51.208;4.242;2023-04-24T10:25:24;11.73;;;2.30;;
19163;SDS011;9714;51.208;4.242;2023-04-24T10:27:59;11.33;;;2.70;;
19163;SDS011;9714;51.208;4.242;2023-04-24T10:30:28;8.10;;;2.67;;
19163;SDS011;9714;51.208;4.242;2023-04-24T10:32:59;9.33;;;2.20;;
19163;SDS011;9714;51.208;4.242;2023-04-24T10:35:27;7.67;;;2.07;;
19163;SDS011;9714;51.208;4.242;2023-04-24T10:37:59;9.70;;;1.90;;
19163;SDS011;9714;51.208;4.242;2023-04-24T10:40:35;12.77;;;2.37;;
19163;SDS011;9714;51.208;4.242;2023-04-24T10:43:04;11.57;;;2.70;;
19163;SDS011;9714;51.208;4.242;2023-04-24T10:45:34;10.47;;;2.27;;
19163;SDS011;9714;51.208;4.242;2023-04-24T10:48:02;15.57;;;2.77;;
19163;SDS011;9714;51.208;4.242;2023-04-24T10:50:41;8.53;;;2.27;;
19163;SDS011;9714;51.208;4.242;2023-04-24T10:53:12;8.00;;;2.20;;
19163;SDS011;9714;51.208;4.242;2023-04-24T10:55:44;7.43;;;1.90;;
19163;SDS011;9714;51.208;4.242;2023-04-24T10:58:13;7.87;;;1.80;;
19163;SDS011;9714;51.208;4.242;2023-04-24T11:00:47;10.33;;;2.37;;
19163;SDS011;9714;51.208;4.242;2023-04-24T11:03:23;35.40;;;3.47;;
19163;SDS011;9714;51.208;4.242;2023-04-24T11:05:53;5.47;;;1.40;;
19163;SDS011;9714;51.208;4.242;2023-04-24T11:08:25;10.37;;;1.80;;
19163;SDS011;9714;51.208;4.242;2023-04-24T11:10:58;7.87;;;1.50;;
19163;SDS011;9714;51.208;4.242;2023-04-24T11:13:27;7.30;;;1.10;;
19163;SDS011;9714;51.208;4.242;2023-04-24T11:16:16;10.60;;;1.30;;
19163;SDS011;9714;51.208;4.242;2023-04-24T11:18:50;19.43;;;2.23;;
19163;SDS011;9714;51.208;4.242;2023-04-24T11:21:19;7.53;;;1.20;;
19163;SDS011;9714;51.208;4.242;2023-04-24T11:23:48;5.23;;;1.43;;
19163;SDS011;9714;51.208;4.242;2023-04-24T11:26:17;10.20;;;2.10;;
19163;SDS011;9714;51.208;4.242;2023-04-24T11:28:47;3.97;;;1.13;;
19163;SDS011;9714;51.208;4.242;2023-04-24T11:34:08;7.07;;;1.40;;
19163;SDS011;9714;51.208;4.242;2023-04-24T11:36:36;12.90;;;1.63;;
19163;SDS011;9714;51.208;4.242;2023-04-24T11:39:03;8.83;;;1.80;;
19163;SDS011;9714;51.208;4.242;2023-04-24T11:41:31;3.70;;;1.10;;
19163;SDS011;9714;51.208;4.242;2023-04-24T11:43:58;6.47;;;1.13;;
19163;SDS011;9714;51.208;4.242;2023-04-24T11:46:29;19.60;;;6.03;;
19163;SDS011;9714;51.208;4.242;2023-04-24T11:48:58;5.70;;;1.13;;
19163;SDS011;9714;51.208;4.242;2023-04-24T11:51:26;5.13;;;1.40;;
19163;SDS011;9714;51.208;4.242;2023-04-24T11:53:54;3.53;;;1.10;;
19163;SDS011;9714;51.208;4.242;2023-04-24T11:56:22;4.80;;;1.07;;
19163;SDS011;9714;51.208;4.242;2023-04-24T11:58:51;4.37;;;0.90;;
19163;SDS011;9714;51.208;4.242;2023-04-24T12:01:19;5.03;;;1.20;;
19163;SDS011;9714;51.208;4.242;2023-04-24T12:03:49;5.30;;;1.27;;
19163;SDS011;9714;51.208;4.242;2023-04-24T12:06:18;10.17;;;1.63;;
19163;SDS011;9714;51.208;4.242;2023-04-24T12:08:46;6.13;;;1.47;;
19163;SDS011;9714;51.208;4.242;2023-04-24T12:11:14;4.40;;;1.00;;
19163;SDS011;9714;51.208;4.242;2023-04-24T12:13:46;3.40;;;0.90;;
19163;SDS011;9714;51.208;4.242;2023-04-24T12:16:14;6.93;;;1.30;;
19163;SDS011;9714;51.208;4.242;2023-04-24T12:18:44;7.60;;;1.43;;
19163;SDS011;9714;51.208;4.242;2023-04-24T12:21:16;8.03;;;1.77;;
19163;SDS011;9714;51.208;4.242;2023-04-24T12:23:50;13.13;;;2.33;;
19163;SDS011;9714;51.208;4.242;2023-04-24T12:26:17;5.60;;;1.20;;
19163;SDS011;9714;51.208;4.242;2023-04-24T12:28:46;8.97;;;2.40;;
19163;SDS011;9714;51.208;4.242;2023-04-24T12:31:15;6.57;;;2.10;;
19163;SDS011;9714;51.208;4.242;2023-04-24T12:33:42;7.30;;;2.07;;
19163;SDS011;9714;51.208;4.242;2023-04-24T12:36:11;12.57;;;2.60;;
19163;SDS011;9714;51.208;4.242;2023-04-24T12:38:43;13.67;;;2.07;;
19163;SDS011;9714;51.208;4.242;2023-04-24T12:41:12;8.17;;;1.83;;
19163;SDS011;9714;51.208;4.242;2023-04-24T12:43:50;10.33;;;2.30;;
19163;SDS011;9714;51.208;4.242;2023-04-24T12:46:19;13.63;;;2.33;;
19163;SDS011;9714;51.208;4.242;2023-04-24T12:48:46;13.33;;;2.37;;
19163;SDS011;9714;51.208;4.242;2023-04-24T12:51:13;8.70;;;1.83;;
19163;SDS011;9714;51.208;4.242;2023-04-24T12:53:40;8.10;;;1.67;;
19163;SDS011;9714;51.208;4.242;2023-04-24T12:56:10;9.43;;;1.80;;
19163;SDS011;9714;51.208;4.242;2023-04-24T12:58:37;10.43;;;2.07;;
19163;SDS011;9714;51.208;4.242;2023-04-24T13:01:04;10.38;;;1.63;;
19163;SDS011;9714;51.208;4.242;2023-04-24T13:03:32;7.20;;;1.30;;
19163;SDS011;9714;51.208;4.242;2023-04-24T13:05:59;7.57;;;1.70;;
19163;SDS011;9714;51.208;4.242;2023-04-24T13:08:26;8.75;;;1.70;;
19163;SDS011;9714;51.208;4.242;2023-04-24T13:10:54;6.73;;;1.70;;
19163;SDS011;9714;51.208;4.242;2023-04-24T13:13:22;12.83;;;2.53;;
19163;SDS011;9714;51.208;4.242;2023-04-24T13:15:49;11.23;;;2.17;;
19163;SDS011;9714;51.208;4.242;2023-04-24T13:18:16;6.70;;;1.60;;
19163;SDS011;9714;51.208;4.242;2023-04-24T13:20:43;8.57;;;1.92;;
19163;SDS011;9714;51.208;4.242;2023-04-24T13:23:13;6.90;;;1.90;;
19163;SDS011;9714;51.208;4.242;2023-04-24T13:25:40;8.50;;;1.90;;
19163;SDS011;9714;51.208;4.242;2023-04-24T13:28:09;9.83;;;2.00;;
19163;SDS011;9714;51.208;4.242;2023-04-24T13:30:36;5.03;;;1.20;;
19163;SDS011;9714;51.208;4.242;2023-04-24T13:33:03;5.87;;;1.63;;
19163;SDS011;9714;51.208;4.242;2023-04-24T13:35:30;14.23;;;2.50;;
19163;SDS011;9714;51.208;4.242;2023-04-24T13:37:58;7.60;;;1.70;;
19163;SDS011;9714;51.208;4.242;2023-04-24T13:40:27;7.37;;;2.20;;
19163;SDS011;9714;51.208;4.242;2023-04-24T13:42:54;6.23;;;1.60;;
19163;SDS011;9714;51.208;4.242;2023-04-24T13:45:24;8.77;;;1.53;;
19163;SDS011;9714;51.208;4.242;2023-04-24T13:47:51;9.77;;;2.20;;
19163;SDS011;9714;51.208;4.242;2023-04-24T13:50:20;9.93;;;1.40;;
19163;SDS011;9714;51.208;4.242;2023-04-24T13:52:47;8.43;;;1.83;;
19163;SDS011;9714;51.208;4.242;2023-04-24T13:55:15;7.90;;;1.52;;
19163;SDS011;9714;51.208;4.242;2023-04-24T13:57:42;9.57;;;1.27;;
19163;SDS011;9714;51.208;4.242;2023-04-24T14:00:10;12.18;;;1.90;;
19163;SDS011;9714;51.208;4.242;2023-04-24T14:02:40;7.10;;;1.65;;
19163;SDS011;9714;51.208;4.242;2023-04-24T14:05:07;4.40;;;1.10;;
19163;SDS011;9714;51.208;4.242;2023-04-24T14:07:41;8.63;;;1.88;;
19163;SDS011;9714;51.208;4.242;2023-04-24T14:10:09;5.25;;;1.20;;
19163;SDS011;9714;51.208;4.242;2023-04-24T14:12:36;8.93;;;1.65;;
19163;SDS011;9714;51.208;4.242;2023-04-24T14:15:04;4.75;;;1.10;;
19163;SDS011;9714;51.208;4.242;2023-04-24T14:17:32;8.30;;;1.40;;
19163;SDS011;9714;51.208;4.242;2023-04-24T14:20:01;5.18;;;1.23;;
19163;SDS011;9714;51.208;4.242;2023-04-24T14:22:29;7.97;;;1.77;;
19163;SDS011;9714;51.208;4.242;2023-04-24T14:24:56;14.13;;;1.80;;
19163;SDS011;9714;51.208;4.242;2023-04-24T14:27:24;7.63;;;1.40;;
19163;SDS011;9714;51.208;4.242;2023-04-24T14:29:51;4.07;;;1.00;;
19163;SDS011;9714;51.208;4.242;2023-04-24T14:32:20;15.82;;;2.40;;
19163;SDS011;9714;51.208;4.242;2023-04-24T14:34:47;4.55;;;1.10;;
19163;SDS011;9714;51.208;4.242;2023-04-24T14:37:18;9.38;;;1.60;;
19163;SDS011;9714;51.208;4.242;2023-04-24T14:39:45;5.80;;;1.30;;
19163;SDS011;9714;51.208;4.242;2023-04-24T14:42:12;7.93;;;1.38;;
19163;SDS011;9714;51.208;4.242;2023-04-24T14:44:44;5.55;;;1.42;;
19163;SDS011;9714;51.208;4.242;2023-04-24T14:47:11;6.78;;;1.77;;
19163;SDS011;9714;51.208;4.242;2023-04-24T14:49:38;10.97;;;2.10;;
19163;SDS011;9714;51.208;4.242;2023-04-24T14:52:05;10.30;;;2.07;;
19163;SDS011;9714;51.208;4.242;2023-04-24T14:54:46;10.27;;;2.10;;
19163;SDS011;9714;51.208;4.242;2023-04-24T14:57:15;7.17;;;2.00;;
19163;SDS011;9714;51.208;4.242;2023-04-24T15:00:01;10.35;;;2.28;;